sensor_id;sensor_type;location;lat;lon;timestamp;temperature;humidity
58809;DHT22;44579;51.672;7.834;2022-11-20T00:01:21;-2.00;84.50
58809;DHT22;44579;51.672;7.834;2022-11-20T00:03:48;-2.00;84.60
58809;DHT22;44579;51.672;7.834;2022-11-20T00:06:16;-2.00;84.50
58809;DHT22;44579;51.672;7.834;2022-11-20T00:08:43;-2.00;84.40
58809;DHT22;44579;51.672;7.834;2022-11-20T00:11:11;-2.00;84.40
58809;DHT22;44579;51.672;7.834;2022-11-20T00:13:46;-2.10;84.30
58809;DHT22;44579;51.672;7.834;2022-11-20T00:16:13;-2.00;84.40
58809;DHT22;44579;51.672;7.834;2022-11-20T00:18:40;-2.00;84.40
58809;DHT22;44579;51.672;7.834;2022-11-20T00:21:12;-2.10;84.40
58809;DHT22;44579;51.672;7.834;2022-11-20T00:23:40;-2.10;84.50
58809;DHT22;44579;51.672;7.834;2022-11-20T00:26:09;-2.10;84.50
58809;DHT22;44579;51.672;7.834;2022-11-20T00:28:36;-2.10;84.40
58809;DHT22;44579;51.672;7.834;2022-11-20T00:31:03;-2.10;84.50
58809;DHT22;44579;51.672;7.834;2022-11-20T00:33:30;-2.10;84.70
58809;DHT22;44579;51.672;7.834;2022-11-20T00:36:01;-2.20;84.70
58809;DHT22;44579;51.672;7.834;2022-11-20T00:38:29;-2.20;84.70
58809;DHT22;44579;51.672;7.834;2022-11-20T00:40:56;-2.20;84.70
58809;DHT22;44579;51.672;7.834;2022-11-20T00:43:24;-2.30;84.70
58809;DHT22;44579;51.672;7.834;2022-11-20T00:45:55;-2.30;84.70
58809;DHT22;44579;51.672;7.834;2022-11-20T00:48:22;-2.20;84.80
58809;DHT22;44579;51.672;7.834;2022-11-20T00:50:49;-2.30;84.60
58809;DHT22;44579;51.672;7.834;2022-11-20T00:53:16;-2.20;84.60
58809;DHT22;44579;51.672;7.834;2022-11-20T00:55:42;-2.30;84.60
58809;DHT22;44579;51.672;7.834;2022-11-20T00:58:09;-2.30;84.60
58809;DHT22;44579;51.672;7.834;2022-11-20T01:00:40;-2.30;84.70
58809;DHT22;44579;51.672;7.834;2022-11-20T01:03:06;-2.40;84.70
58809;DHT22;44579;51.672;7.834;2022-11-20T01:05:34;-2.30;84.80
58809;DHT22;44579;51.672;7.834;2022-11-20T01:08:01;-2.40;84.90
58809;DHT22;44579;51.672;7.834;2022-11-20T01:10:27;-2.40;84.90
58809;DHT22;44579;51.672;7.834;2022-11-20T01:12:54;-2.40;84.90
58809;DHT22;44579;51.672;7.834;2022-11-20T01:15:40;-2.40;84.90
58809;DHT22;44579;51.672;7.834;2022-11-20T01:18:06;-2.40;85.00
58809;DHT22;44579;51.672;7.834;2022-11-20T01:20:34;-2.40;85.00
58809;DHT22;44579;51.672;7.834;2022-11-20T01:23:02;-2.40;84.90
58809;DHT22;44579;51.672;7.834;2022-11-20T01:25:29;-2.40;84.80
58809;DHT22;44579;51.672;7.834;2022-11-20T01:27:55;-2.40;84.60
58809;DHT22;44579;51.672;7.834;2022-11-20T01:30:23;-2.40;84.60
58809;DHT22;44579;51.672;7.834;2022-11-20T01:32:50;-2.40;84.70
58809;DHT22;44579;51.672;7.834;2022-11-20T01:35:17;-2.40;84.70
58809;DHT22;44579;51.672;7.834;2022-11-20T01:37:44;-2.40;84.60
58809;DHT22;44579;51.672;7.834;2022-11-20T01:40:10;-2.40;84.70
58809;DHT22;44579;51.672;7.834;2022-11-20T01:42:37;-2.40;84.70
58809;DHT22;44579;51.672;7.834;2022-11-20T01:48:08;-2.40;84.80
58809;DHT22;44579;51.672;7.834;2022-11-20T01:50:35;-2.30;85.00
58809;DHT22;44579;51.672;7.834;2022-11-20T01:53:04;-2.20;85.10
58809;DHT22;44579;51.672;7.834;2022-11-20T01:55:32;-2.10;85.20
58809;DHT22;44579;51.672;7.834;2022-11-20T01:58:01;-2.10;85.30
58809;DHT22;44579;51.672;7.834;2022-11-20T02:00:28;-1.90;85.20
58809;DHT22;44579;51.672;7.834;2022-11-20T02:02:58;-1.80;85.10
58809;DHT22;44579;51.672;7.834;2022-11-20T02:05:40;-1.70;85.10
58809;DHT22;44579;51.672;7.834;2022-11-20T02:08:09;-1.60;85.00
58809;DHT22;44579;51.672;7.834;2022-11-20T02:10:36;-1.60;85.00
58809;DHT22;44579;51.672;7.834;2022-11-20T02:13:03;-1.50;85.10
58809;DHT22;44579;51.672;7.834;2022-11-20T02:15:48;-1.40;85.20
58809;DHT22;44579;51.672;7.834;2022-11-20T02:18:16;-1.40;85.20
58809;DHT22;44579;51.672;7.834;2022-11-20T02:20:44;-1.30;85.20
58809;DHT22;44579;51.672;7.834;2022-11-20T02:23:16;-1.20;85.30
58809;DHT22;44579;51.672;7.834;2022-11-20T02:25:46;-1.20;85.30
58809;DHT22;44579;51.672;7.834;2022-11-20T02:28:13;-1.10;85.30
58809;DHT22;44579;51.672;7.834;2022-11-20T02:30:41;-1.10;85.30
58809;DHT22;44579;51.672;7.834;2022-11-20T02:33:08;-1.10;85.30
58809;DHT22;44579;51.672;7.834;2022-11-20T02:38:01;-1.00;85.50
58809;DHT22;44579;51.672;7.834;2022-11-20T02:40:29;-1.00;85.50
58809;DHT22;44579;51.672;7.834;2022-11-20T02:42:55;-1.00;85.50
58809;DHT22;44579;51.672;7.834;2022-11-20T02:45:23;-0.90;85.50
58809;DHT22;44579;51.672;7.834;2022-11-20T02:47:50;-0.90;85.50
58809;DHT22;44579;51.672;7.834;2022-11-20T02:50:17;-0.90;85.60
58809;DHT22;44579;51.672;7.834;2022-11-20T02:52:44;-0.80;85.70
58809;DHT22;44579;51.672;7.834;2022-11-20T02:55:10;-0.80;85.70
58809;DHT22;44579;51.672;7.834;2022-11-20T02:57:37;-0.70;85.80
58809;DHT22;44579;51.672;7.834;2022-11-20T03:00:04;-0.70;85.70
58809;DHT22;44579;51.672;7.834;2022-11-20T03:02:31;-0.70;85.70
58809;DHT22;44579;51.672;7.834;2022-11-20T03:04:58;-0.60;85.80
58809;DHT22;44579;51.672;7.834;2022-11-20T03:07:25;-0.60;85.80
58809;DHT22;44579;51.672;7.834;2022-11-20T03:09:51;-0.60;85.90
58809;DHT22;44579;51.672;7.834;2022-11-20T03:12:18;-0.60;86.00
58809;DHT22;44579;51.672;7.834;2022-11-20T03:14:45;-0.60;86.10
58809;DHT22;44579;51.672;7.834;2022-11-20T03:17:18;-0.60;86.10
58809;DHT22;44579;51.672;7.834;2022-11-20T03:19:45;-0.60;86.30
58809;DHT22;44579;51.672;7.834;2022-11-20T03:22:12;-0.50;86.30
58809;DHT22;44579;51.672;7.834;2022-11-20T03:24:39;-0.50;86.30
58809;DHT22;44579;51.672;7.834;2022-11-20T03:27:05;-0.50;86.20
58809;DHT22;44579;51.672;7.834;2022-11-20T03:29:32;-0.40;86.30
58809;DHT22;44579;51.672;7.834;2022-11-20T03:31:59;-0.40;86.20
58809;DHT22;44579;51.672;7.834;2022-11-20T03:34:25;-0.40;86.20
58809;DHT22;44579;51.672;7.834;2022-11-20T03:36:52;-0.40;86.30
58809;DHT22;44579;51.672;7.834;2022-11-20T03:39:18;-0.40;86.30
58809;DHT22;44579;51.672;7.834;2022-11-20T03:41:46;-0.40;86.30
58809;DHT22;44579;51.672;7.834;2022-11-20T03:44:12;-0.30;86.40
58809;DHT22;44579;51.672;7.834;2022-11-20T03:46:39;-0.30;86.40
58809;DHT22;44579;51.672;7.834;2022-11-20T03:49:06;-0.30;86.40
58809;DHT22;44579;51.672;7.834;2022-11-20T03:51:33;-0.30;86.40
58809;DHT22;44579;51.672;7.834;2022-11-20T03:54:05;-0.30;86.40
58809;DHT22;44579;51.672;7.834;2022-11-20T03:56:33;-0.30;86.50
58809;DHT22;44579;51.672;7.834;2022-11-20T03:59:00;-0.30;86.60
58809;DHT22;44579;51.672;7.834;2022-11-20T04:01:31;-0.30;86.60
58809;DHT22;44579;51.672;7.834;2022-11-20T04:03:59;-0.30;86.60
58809;DHT22;44579;51.672;7.834;2022-11-20T04:06:30;-0.30;86.60
58809;DHT22;44579;51.672;7.834;2022-11-20T04:08:57;-0.30;86.60
58809;DHT22;44579;51.672;7.834;2022-11-20T04:11:28;-0.20;86.70
58809;DHT22;44579;51.672;7.834;2022-11-20T04:13:56;-0.20;86.60
58809;DHT22;44579;51.672;7.834;2022-11-20T04:16:23;-0.20;86.60
58809;DHT22;44579;51.672;7.834;2022-11-20T04:18:54;-0.20;86.70
58809;DHT22;44579;51.672;7.834;2022-11-20T04:21:21;-0.30;86.70
58809;DHT22;44579;51.672;7.834;2022-11-20T04:23:48;-0.30;86.80
58809;DHT22;44579;51.672;7.834;2022-11-20T04:26:16;-0.20;86.90
58809;DHT22;44579;51.672;7.834;2022-11-20T04:28:42;-0.20;86.80
58809;DHT22;44579;51.672;7.834;2022-11-20T04:31:10;-0.20;86.70
58809;DHT22;44579;51.672;7.834;2022-11-20T04:33:37;-0.10;86.60
58809;DHT22;44579;51.672;7.834;2022-11-20T04:36:07;-0.10;86.60
58809;DHT22;44579;51.672;7.834;2022-11-20T04:38:34;-0.10;86.60
58809;DHT22;44579;51.672;7.834;2022-11-20T04:41:02;-0.10;86.70
58809;DHT22;44579;51.672;7.834;2022-11-20T04:43:29;-0.10;86.70
58809;DHT22;44579;51.672;7.834;2022-11-20T04:45:56;-0.10;86.80
58809;DHT22;44579;51.672;7.834;2022-11-20T04:48:23;-0.10;86.80
58809;DHT22;44579;51.672;7.834;2022-11-20T04:50:50;-0.10;86.80
58809;DHT22;44579;51.672;7.834;2022-11-20T04:53:17;-0.10;86.80
58809;DHT22;44579;51.672;7.834;2022-11-20T04:55:44;-0.10;86.70
58809;DHT22;44579;51.672;7.834;2022-11-20T04:58:11;-0.10;86.60
58809;DHT22;44579;51.672;7.834;2022-11-20T05:00:38;-0.10;86.60
58809;DHT22;44579;51.672;7.834;2022-11-20T05:03:05;-0.10;86.60
58809;DHT22;44579;51.672;7.834;2022-11-20T05:05:35;0.00;86.70
58809;DHT22;44579;51.672;7.834;2022-11-20T05:08:02;-0.10;86.60
58809;DHT22;44579;51.672;7.834;2022-11-20T05:10:29;-0.10;86.60
58809;DHT22;44579;51.672;7.834;2022-11-20T05:12:56;-0.10;86.60
58809;DHT22;44579;51.672;7.834;2022-11-20T05:15:23;-0.10;86.60
58809;DHT22;44579;51.672;7.834;2022-11-20T05:17:50;-0.10;86.60
58809;DHT22;44579;51.672;7.834;2022-11-20T05:20:18;-0.10;86.60
58809;DHT22;44579;51.672;7.834;2022-11-20T05:22:45;-0.20;86.50
58809;DHT22;44579;51.672;7.834;2022-11-20T05:25:11;-0.20;86.50
58809;DHT22;44579;51.672;7.834;2022-11-20T05:27:38;-0.20;86.60
58809;DHT22;44579;51.672;7.834;2022-11-20T05:30:05;-0.20;86.60
58809;DHT22;44579;51.672;7.834;2022-11-20T05:32:32;-0.20;86.60
58809;DHT22;44579;51.672;7.834;2022-11-20T05:34:59;-0.20;86.50
58809;DHT22;44579;51.672;7.834;2022-11-20T05:37:26;-0.20;86.50
58809;DHT22;44579;51.672;7.834;2022-11-20T05:39:52;-0.30;86.50
58809;DHT22;44579;51.672;7.834;2022-11-20T05:42:19;-0.20;86.60
58809;DHT22;44579;51.672;7.834;2022-11-20T05:44:58;-0.20;86.60
58809;DHT22;44579;51.672;7.834;2022-11-20T05:47:26;-0.20;86.50
58809;DHT22;44579;51.672;7.834;2022-11-20T05:49:53;-0.30;86.40
58809;DHT22;44579;51.672;7.834;2022-11-20T05:52:20;-0.20;86.30
58809;DHT22;44579;51.672;7.834;2022-11-20T05:54:46;-0.30;86.20
58809;DHT22;44579;51.672;7.834;2022-11-20T05:57:13;-0.40;86.20
58809;DHT22;44579;51.672;7.834;2022-11-20T05:59:40;-0.40;86.30
58809;DHT22;44579;51.672;7.834;2022-11-20T06:02:07;-0.40;86.30
58809;DHT22;44579;51.672;7.834;2022-11-20T06:04:33;-0.40;86.30
58809;DHT22;44579;51.672;7.834;2022-11-20T06:07:00;-0.40;86.30
58809;DHT22;44579;51.672;7.834;2022-11-20T06:09:26;-0.50;86.10
58809;DHT22;44579;51.672;7.834;2022-11-20T06:11:53;-0.50;86.90
58809;DHT22;44579;51.672;7.834;2022-11-20T06:14:20;-0.50;86.10
58809;DHT22;44579;51.672;7.834;2022-11-20T06:16:47;-0.60;86.00
58809;DHT22;44579;51.672;7.834;2022-11-20T06:19:13;-0.60;86.00
58809;DHT22;44579;51.672;7.834;2022-11-20T06:21:41;-0.70;86.00
58809;DHT22;44579;51.672;7.834;2022-11-20T06:24:11;-0.70;86.00
58809;DHT22;44579;51.672;7.834;2022-11-20T06:26:38;-0.80;86.00
58809;DHT22;44579;51.672;7.834;2022-11-20T06:29:04;-0.90;86.00
58809;DHT22;44579;51.672;7.834;2022-11-20T06:31:32;-0.90;86.00
58809;DHT22;44579;51.672;7.834;2022-11-20T06:34:01;-0.90;86.00
58809;DHT22;44579;51.672;7.834;2022-11-20T06:36:28;-1.00;86.00
58809;DHT22;44579;51.672;7.834;2022-11-20T06:38:54;-1.00;86.00
58809;DHT22;44579;51.672;7.834;2022-11-20T06:41:21;-1.10;86.10
58809;DHT22;44579;51.672;7.834;2022-11-20T06:43:48;-1.10;86.10
58809;DHT22;44579;51.672;7.834;2022-11-20T06:46:16;-1.20;86.10
58809;DHT22;44579;51.672;7.834;2022-11-20T06:48:46;-1.20;86.10
58809;DHT22;44579;51.672;7.834;2022-11-20T06:51:13;-1.20;86.00
58809;DHT22;44579;51.672;7.834;2022-11-20T06:53:40;-1.20;86.00
58809;DHT22;44579;51.672;7.834;2022-11-20T06:56:06;-1.30;86.00
58809;DHT22;44579;51.672;7.834;2022-11-20T06:58:34;-1.30;86.00
58809;DHT22;44579;51.672;7.834;2022-11-20T07:01:02;-1.40;85.90
58809;DHT22;44579;51.672;7.834;2022-11-20T07:03:29;-1.30;86.00
58809;DHT22;44579;51.672;7.834;2022-11-20T07:05:56;-1.30;86.00
58809;DHT22;44579;51.672;7.834;2022-11-20T07:08:23;-1.30;85.90
58809;DHT22;44579;51.672;7.834;2022-11-20T07:10:50;-1.40;85.90
58809;DHT22;44579;51.672;7.834;2022-11-20T07:13:17;-1.40;85.80
58809;DHT22;44579;51.672;7.834;2022-11-20T07:15:44;-1.40;85.80
58809;DHT22;44579;51.672;7.834;2022-11-20T07:18:11;-1.40;85.80
58809;DHT22;44579;51.672;7.834;2022-11-20T07:20:37;-1.40;85.80
58809;DHT22;44579;51.672;7.834;2022-11-20T07:23:04;-1.40;85.90
58809;DHT22;44579;51.672;7.834;2022-11-20T07:25:31;-1.40;85.90
58809;DHT22;44579;51.672;7.834;2022-11-20T07:27:58;-1.40;85.90
58809;DHT22;44579;51.672;7.834;2022-11-20T07:30:25;-1.40;85.90
58809;DHT22;44579;51.672;7.834;2022-11-20T07:32:52;-1.40;85.90
58809;DHT22;44579;51.672;7.834;2022-11-20T07:35:19;-1.40;85.90
58809;DHT22;44579;51.672;7.834;2022-11-20T07:37:46;-1.40;85.90
58809;DHT22;44579;51.672;7.834;2022-11-20T07:40:13;-1.30;85.90
58809;DHT22;44579;51.672;7.834;2022-11-20T07:43:14;-1.30;85.90
58809;DHT22;44579;51.672;7.834;2022-11-20T07:45:33;-1.20;86.00
58809;DHT22;44579;51.672;7.834;2022-11-20T07:48:00;-1.10;86.10
58809;DHT22;44579;51.672;7.834;2022-11-20T07:50:27;-1.00;86.00
58809;DHT22;44579;51.672;7.834;2022-11-20T07:53:00;-0.90;86.00
58809;DHT22;44579;51.672;7.834;2022-11-20T07:55:26;-0.80;85.90
58809;DHT22;44579;51.672;7.834;2022-11-20T07:57:56;-0.70;85.80
58809;DHT22;44579;51.672;7.834;2022-11-20T08:00:23;-0.60;85.80
58809;DHT22;44579;51.672;7.834;2022-11-20T08:02:50;-0.50;85.80
58809;DHT22;44579;51.672;7.834;2022-11-20T08:05:17;-0.40;85.80
58809;DHT22;44579;51.672;7.834;2022-11-20T08:07:44;-0.30;85.90
58809;DHT22;44579;51.672;7.834;2022-11-20T08:10:12;-0.30;85.80
58809;DHT22;44579;51.672;7.834;2022-11-20T08:12:45;-0.20;85.90
58809;DHT22;44579;51.672;7.834;2022-11-20T08:15:30;-0.20;85.90
58809;DHT22;44579;51.672;7.834;2022-11-20T08:17:59;-0.20;85.80
58809;DHT22;44579;51.672;7.834;2022-11-20T08:20:45;-0.20;85.80
58809;DHT22;44579;51.672;7.834;2022-11-20T08:23:12;-0.20;85.90
58809;DHT22;44579;51.672;7.834;2022-11-20T08:25:39;-0.30;85.90
58809;DHT22;44579;51.672;7.834;2022-11-20T08:28:07;-0.20;86.00
58809;DHT22;44579;51.672;7.834;2022-11-20T08:30:45;-0.20;85.90
58809;DHT22;44579;51.672;7.834;2022-11-20T08:33:12;-0.10;86.00
58809;DHT22;44579;51.672;7.834;2022-11-20T08:35:39;-0.10;85.90
58809;DHT22;44579;51.672;7.834;2022-11-20T08:38:08;0.00;85.90
58809;DHT22;44579;51.672;7.834;2022-11-20T08:40:34;0.00;85.90
58809;DHT22;44579;51.672;7.834;2022-11-20T08:43:01;0.00;85.80
58809;DHT22;44579;51.672;7.834;2022-11-20T08:45:28;0.00;85.90
58809;DHT22;44579;51.672;7.834;2022-11-20T08:48:01;0.10;85.90
58809;DHT22;44579;51.672;7.834;2022-11-20T08:50:27;0.10;85.90
58809;DHT22;44579;51.672;7.834;2022-11-20T08:52:54;0.20;85.90
58809;DHT22;44579;51.672;7.834;2022-11-20T08:55:21;0.20;86.00
58809;DHT22;44579;51.672;7.834;2022-11-20T08:57:48;0.20;85.90
58809;DHT22;44579;51.672;7.834;2022-11-20T09:00:16;0.30;86.10
58809;DHT22;44579;51.672;7.834;2022-11-20T09:02:43;0.30;86.10
58809;DHT22;44579;51.672;7.834;2022-11-20T09:05:10;0.30;86.10
58809;DHT22;44579;51.672;7.834;2022-11-20T09:07:36;0.30;86.20
58809;DHT22;44579;51.672;7.834;2022-11-20T09:10:03;0.40;86.20
58809;DHT22;44579;51.672;7.834;2022-11-20T09:12:51;0.40;86.10
58809;DHT22;44579;51.672;7.834;2022-11-20T09:15:18;0.50;86.10
58809;DHT22;44579;51.672;7.834;2022-11-20T09:20:18;0.60;86.10
58809;DHT22;44579;51.672;7.834;2022-11-20T09:22:45;0.60;86.10
58809;DHT22;44579;51.672;7.834;2022-11-20T09:25:12;0.70;86.20
58809;DHT22;44579;51.672;7.834;2022-11-20T09:27:39;0.70;86.10
58809;DHT22;44579;51.672;7.834;2022-11-20T09:30:07;0.80;86.30
58809;DHT22;44579;51.672;7.834;2022-11-20T09:32:34;0.80;86.30
58809;DHT22;44579;51.672;7.834;2022-11-20T09:35:02;0.80;86.40
58809;DHT22;44579;51.672;7.834;2022-11-20T09:37:28;0.90;86.50
58809;DHT22;44579;51.672;7.834;2022-11-20T09:39:55;0.90;86.60
58809;DHT22;44579;51.672;7.834;2022-11-20T09:42:40;1.00;86.70
58809;DHT22;44579;51.672;7.834;2022-11-20T09:52:49;1.10;86.80
58809;DHT22;44579;51.672;7.834;2022-11-20T09:55:21;1.20;86.80
58809;DHT22;44579;51.672;7.834;2022-11-20T09:57:48;1.20;86.90
58809;DHT22;44579;51.672;7.834;2022-11-20T10:00:17;1.30;87.00
58809;DHT22;44579;51.672;7.834;2022-11-20T10:03:03;1.30;87.00
58809;DHT22;44579;51.672;7.834;2022-11-20T10:05:40;1.30;87.00
58809;DHT22;44579;51.672;7.834;2022-11-20T10:13:46;1.50;87.30
58809;DHT22;44579;51.672;7.834;2022-11-20T10:21:39;1.60;87.60
58809;DHT22;44579;51.672;7.834;2022-11-20T10:24:21;1.60;87.60
58809;DHT22;44579;51.672;7.834;2022-11-20T10:27:00;1.60;87.70
58809;DHT22;44579;51.672;7.834;2022-11-20T10:29:34;1.70;87.80
58809;DHT22;44579;51.672;7.834;2022-11-20T10:32:02;1.70;87.80
58809;DHT22;44579;51.672;7.834;2022-11-20T10:37:00;1.80;87.90
58809;DHT22;44579;51.672;7.834;2022-11-20T10:42:17;1.90;87.90
58809;DHT22;44579;51.672;7.834;2022-11-20T10:44:50;1.90;88.00
58809;DHT22;44579;51.672;7.834;2022-11-20T10:47:31;1.90;88.00
58809;DHT22;44579;51.672;7.834;2022-11-20T10:50:01;2.00;88.10
58809;DHT22;44579;51.672;7.834;2022-11-20T10:52:32;1.90;88.00
58809;DHT22;44579;51.672;7.834;2022-11-20T10:56:04;2.00;88.10
58809;DHT22;44579;51.672;7.834;2022-11-20T10:58:03;2.00;88.20
58809;DHT22;44579;51.672;7.834;2022-11-20T11:00:34;2.00;88.20
58809;DHT22;44579;51.672;7.834;2022-11-20T11:03:01;2.10;88.30
58809;DHT22;44579;51.672;7.834;2022-11-20T11:05:41;2.10;88.30
58809;DHT22;44579;51.672;7.834;2022-11-20T11:08:13;2.10;88.30
58809;DHT22;44579;51.672;7.834;2022-11-20T11:10:53;2.20;88.30
58809;DHT22;44579;51.672;7.834;2022-11-20T11:13:25;2.20;88.50
58809;DHT22;44579;51.672;7.834;2022-11-20T11:15:53;2.30;88.50
58809;DHT22;44579;51.672;7.834;2022-11-20T11:20:50;2.40;88.70
58809;DHT22;44579;51.672;7.834;2022-11-20T11:23:37;2.50;88.80
58809;DHT22;44579;51.672;7.834;2022-11-20T11:26:05;2.60;88.90
58809;DHT22;44579;51.672;7.834;2022-11-20T11:28:32;2.70;88.90
58809;DHT22;44579;51.672;7.834;2022-11-20T11:30:59;2.80;89.00
58809;DHT22;44579;51.672;7.834;2022-11-20T11:33:30;2.80;89.00
58809;DHT22;44579;51.672;7.834;2022-11-20T11:35:58;2.90;89.10
58809;DHT22;44579;51.672;7.834;2022-11-20T11:40:56;2.90;89.10
58809;DHT22;44579;51.672;7.834;2022-11-20T11:43:24;3.00;89.10
58809;DHT22;44579;51.672;7.834;2022-11-20T11:48:54;3.10;89.30
58809;DHT22;44579;51.672;7.834;2022-11-20T11:51:21;3.10;90.00
58809;DHT22;44579;51.672;7.834;2022-11-20T11:53:48;3.20;89.40
58809;DHT22;44579;51.672;7.834;2022-11-20T11:56:15;3.20;89.30
58809;DHT22;44579;51.672;7.834;2022-11-20T11:58:50;3.20;89.30
58809;DHT22;44579;51.672;7.834;2022-11-20T12:03:53;3.20;89.40
58809;DHT22;44579;51.672;7.834;2022-11-20T12:06:22;3.10;89.40
58809;DHT22;44579;51.672;7.834;2022-11-20T12:08:54;3.10;89.40
58809;DHT22;44579;51.672;7.834;2022-11-20T12:11:37;3.10;89.40
58809;DHT22;44579;51.672;7.834;2022-11-20T12:14:09;3.00;89.30
58809;DHT22;44579;51.672;7.834;2022-11-20T12:16:38;3.00;89.40
58809;DHT22;44579;51.672;7.834;2022-11-20T12:19:12;3.00;89.50
58809;DHT22;44579;51.672;7.834;2022-11-20T12:21:49;3.00;89.50
58809;DHT22;44579;51.672;7.834;2022-11-20T12:24:32;3.00;89.50
58809;DHT22;44579;51.672;7.834;2022-11-20T12:27:25;3.00;89.50
58809;DHT22;44579;51.672;7.834;2022-11-20T12:30:10;3.00;89.50
58809;DHT22;44579;51.672;7.834;2022-11-20T12:33:22;3.00;89.50
58809;DHT22;44579;51.672;7.834;2022-11-20T12:43:37;2.90;89.40
58809;DHT22;44579;51.672;7.834;2022-11-20T12:46:28;2.90;89.40
58809;DHT22;44579;51.672;7.834;2022-11-20T12:49:20;2.80;89.30
58809;DHT22;44579;51.672;7.834;2022-11-20T12:52:03;2.80;89.30
58809;DHT22;44579;51.672;7.834;2022-11-20T12:54:53;2.80;89.20
58809;DHT22;44579;51.672;7.834;2022-11-20T12:57:27;2.80;89.20
58809;DHT22;44579;51.672;7.834;2022-11-20T13:00:07;2.80;89.10
58809;DHT22;44579;51.672;7.834;2022-11-20T13:03:23;2.70;89.00
58809;DHT22;44579;51.672;7.834;2022-11-20T13:07:58;2.70;89.00
58809;DHT22;44579;51.672;7.834;2022-11-20T13:15:43;2.80;89.00
58809;DHT22;44579;51.672;7.834;2022-11-20T13:18:12;2.80;88.90
58809;DHT22;44579;51.672;7.834;2022-11-20T13:20:43;2.90;89.00
58809;DHT22;44579;51.672;7.834;2022-11-20T13:23:10;3.00;89.10
58809;DHT22;44579;51.672;7.834;2022-11-20T13:25:37;3.00;89.20
58809;DHT22;44579;51.672;7.834;2022-11-20T13:30:48;3.10;89.20
58809;DHT22;44579;51.672;7.834;2022-11-20T13:33:27;3.10;89.20
58809;DHT22;44579;51.672;7.834;2022-11-20T13:36:05;3.10;89.10
58809;DHT22;44579;51.672;7.834;2022-11-20T13:41:33;3.10;89.10
58809;DHT22;44579;51.672;7.834;2022-11-20T13:44:06;3.10;89.10
58809;DHT22;44579;51.672;7.834;2022-11-20T13:46:36;3.00;88.90
58809;DHT22;44579;51.672;7.834;2022-11-20T13:49:07;3.00;88.90
58809;DHT22;44579;51.672;7.834;2022-11-20T13:51:45;3.00;89.00
58809;DHT22;44579;51.672;7.834;2022-11-20T13:57:15;3.00;88.90
58809;DHT22;44579;51.672;7.834;2022-11-20T14:02:20;3.00;88.90
58809;DHT22;44579;51.672;7.834;2022-11-20T14:04:49;3.00;88.90
58809;DHT22;44579;51.672;7.834;2022-11-20T14:07:17;3.00;88.90
58809;DHT22;44579;51.672;7.834;2022-11-20T14:09:52;3.00;89.00
58809;DHT22;44579;51.672;7.834;2022-11-20T14:12:20;3.10;89.10
58809;DHT22;44579;51.672;7.834;2022-11-20T14:14:49;3.10;89.10
58809;DHT22;44579;51.672;7.834;2022-11-20T14:17:18;3.10;89.00
58809;DHT22;44579;51.672;7.834;2022-11-20T14:19:45;3.10;89.00
58809;DHT22;44579;51.672;7.834;2022-11-20T14:22:17;3.10;88.90
58809;DHT22;44579;51.672;7.834;2022-11-20T14:24:45;3.10;88.80
58809;DHT22;44579;51.672;7.834;2022-11-20T14:27:17;3.10;88.80
58809;DHT22;44579;51.672;7.834;2022-11-20T14:29:44;3.10;88.80
58809;DHT22;44579;51.672;7.834;2022-11-20T14:32:14;3.10;88.80
58809;DHT22;44579;51.672;7.834;2022-11-20T14:34:41;3.10;88.80
58809;DHT22;44579;51.672;7.834;2022-11-20T14:37:10;3.10;88.80
58809;DHT22;44579;51.672;7.834;2022-11-20T14:39:48;3.10;88.70
58809;DHT22;44579;51.672;7.834;2022-11-20T14:42:19;3.10;88.70
58809;DHT22;44579;51.672;7.834;2022-11-20T14:47:21;3.10;88.80
58809;DHT22;44579;51.672;7.834;2022-11-20T14:49:48;3.10;88.80
58809;DHT22;44579;51.672;7.834;2022-11-20T14:52:19;3.10;88.80
58809;DHT22;44579;51.672;7.834;2022-11-20T14:54:50;3.10;88.80
58809;DHT22;44579;51.672;7.834;2022-11-20T14:59:50;3.20;88.80
58809;DHT22;44579;51.672;7.834;2022-11-20T15:02:17;3.10;88.60
58809;DHT22;44579;51.672;7.834;2022-11-20T15:04:47;3.20;88.70
58809;DHT22;44579;51.672;7.834;2022-11-20T15:07:24;3.10;88.60
58809;DHT22;44579;51.672;7.834;2022-11-20T15:12:28;3.10;88.50
58809;DHT22;44579;51.672;7.834;2022-11-20T15:14:55;3.10;88.50
58809;DHT22;44579;51.672;7.834;2022-11-20T15:17:22;3.10;88.40
58809;DHT22;44579;51.672;7.834;2022-11-20T15:19:49;3.10;88.50
58809;DHT22;44579;51.672;7.834;2022-11-20T15:22:16;3.10;88.50
58809;DHT22;44579;51.672;7.834;2022-11-20T15:24:43;3.00;88.40
58809;DHT22;44579;51.672;7.834;2022-11-20T15:27:10;3.00;88.40
58809;DHT22;44579;51.672;7.834;2022-11-20T15:29:36;3.00;88.40
58809;DHT22;44579;51.672;7.834;2022-11-20T15:32:03;3.00;88.40
58809;DHT22;44579;51.672;7.834;2022-11-20T15:34:37;2.90;88.40
58809;DHT22;44579;51.672;7.834;2022-11-20T15:37:04;2.90;88.40
58809;DHT22;44579;51.672;7.834;2022-11-20T15:39:30;2.90;88.40
58809;DHT22;44579;51.672;7.834;2022-11-20T15:41:57;2.90;88.40
58809;DHT22;44579;51.672;7.834;2022-11-20T15:44:24;2.90;88.30
58809;DHT22;44579;51.672;7.834;2022-11-20T15:46:51;2.90;89.20
58809;DHT22;44579;51.672;7.834;2022-11-20T15:49:18;2.90;88.30
58809;DHT22;44579;51.672;7.834;2022-11-20T15:51:46;2.90;88.20
58809;DHT22;44579;51.672;7.834;2022-11-20T15:56:40;2.90;88.20
58809;DHT22;44579;51.672;7.834;2022-11-20T15:59:07;2.90;88.20
58809;DHT22;44579;51.672;7.834;2022-11-20T16:01:33;3.00;88.20
58809;DHT22;44579;51.672;7.834;2022-11-20T16:04:01;2.90;88.00
58809;DHT22;44579;51.672;7.834;2022-11-20T16:06:27;2.90;88.00
58809;DHT22;44579;51.672;7.834;2022-11-20T16:08:54;3.00;88.00
58809;DHT22;44579;51.672;7.834;2022-11-20T16:11:21;3.00;88.00
58809;DHT22;44579;51.672;7.834;2022-11-20T16:13:47;3.00;88.00
58809;DHT22;44579;51.672;7.834;2022-11-20T16:16:34;3.00;87.90
58809;DHT22;44579;51.672;7.834;2022-11-20T16:19:01;2.90;87.90
58809;DHT22;44579;51.672;7.834;2022-11-20T16:21:28;2.90;87.90
58809;DHT22;44579;51.672;7.834;2022-11-20T16:23:59;2.90;87.90
58809;DHT22;44579;51.672;7.834;2022-11-20T16:26:26;2.90;87.90
58809;DHT22;44579;51.672;7.834;2022-11-20T16:28:53;2.90;87.90
58809;DHT22;44579;51.672;7.834;2022-11-20T16:31:20;2.90;87.90
58809;DHT22;44579;51.672;7.834;2022-11-20T16:33:54;3.00;87.90
58809;DHT22;44579;51.672;7.834;2022-11-20T16:36:22;2.90;87.90
58809;DHT22;44579;51.672;7.834;2022-11-20T16:38:53;3.00;87.80
58809;DHT22;44579;51.672;7.834;2022-11-20T16:41:20;3.00;87.80
58809;DHT22;44579;51.672;7.834;2022-11-20T16:43:47;3.00;87.80
58809;DHT22;44579;51.672;7.834;2022-11-20T16:46:15;3.00;87.70
58809;DHT22;44579;51.672;7.834;2022-11-20T16:48:42;3.00;87.70
58809;DHT22;44579;51.672;7.834;2022-11-20T16:51:09;3.00;87.70
58809;DHT22;44579;51.672;7.834;2022-11-20T16:53:37;3.00;87.80
58809;DHT22;44579;51.672;7.834;2022-11-20T16:56:13;3.00;87.80
58809;DHT22;44579;51.672;7.834;2022-11-20T16:58:44;3.00;87.80
58809;DHT22;44579;51.672;7.834;2022-11-20T17:01:12;3.00;87.70
58809;DHT22;44579;51.672;7.834;2022-11-20T17:03:39;3.00;87.70
58809;DHT22;44579;51.672;7.834;2022-11-20T17:06:10;3.00;87.70
58809;DHT22;44579;51.672;7.834;2022-11-20T17:08:37;3.00;87.70
58809;DHT22;44579;51.672;7.834;2022-11-20T17:11:05;3.00;87.70